CheckWX is a tool to help pilots better visualize weather data.  It is not intended as a substitute for an official pre-flight weather briefing.

05:22:39 UTC

ETEB TAF
Ansbach Army Heliport
Germany
TAF ETEB 180511Z 1805/1911 11009KT 9999 FEW020 QNH2990INS BECMG 1816/1817 VRB06KT 9999 FEW030 QNH2983INS TX27/1815Z TN12/1805Z

Jun-18@
05:00 UTC

Jun-18 @ 05:00 UTC

Jun-18@
16:00 UTC

Jun-18 @ 16:00 UTC

TAF ETEB 180511Z 1805/1911 11009KT 9999 FEW020 QNH2990INS
Wind
  • 110° at 9 KTS
Cloud Levels
  • Few at 2,000' AGL

Jun-18@
16:00 UTC

Jun-18 @ 16:00 UTC

Jun-19@
11:00 UTC

Jun-19 @ 11:00 UTC

BECMG 1816/1817 VRB06KT 9999 FEW030 QNH2983INS TX27/1815Z TN12/1805Z

Becoming

Becoming Conditions expected by Tue, Jun 18, 2019 @ 17:00 UTC

Wind
  • Variable at 6 KTS
Cloud Levels
  • Few at 3,000' AGL